sensor_id;sensor_type;location;lat;lon;timestamp;pressure;altitude;pressure_sealevel;temperature;humidity
76448;BME280;65284;51.040;13.722;2023-08-06T00:00:57;99113.22;;;15.88;100.00
76448;BME280;65284;51.040;13.722;2023-08-06T00:03:23;99106.44;;;16.11;100.00
76448;BME280;65284;51.040;13.722;2023-08-06T00:05:50;99102.63;;;16.25;100.00
76448;BME280;65284;51.040;13.722;2023-08-06T00:08:16;99087.53;;;16.06;100.00
76448;BME280;65284;51.040;13.722;2023-08-06T00:10:43;99082.16;;;16.06;100.00
76448;BME280;65284;51.040;13.722;2023-08-06T00:13:10;99085.59;;;15.95;100.00
76448;BME280;65284;51.040;13.722;2023-08-06T00:15:36;99078.00;;;15.91;100.00
76448;BME280;65284;51.040;13.722;2023-08-06T00:18:03;99073.16;;;15.75;100.00
76448;BME280;65284;51.040;13.722;2023-08-06T00:20:30;99075.06;;;15.61;100.00
76448;BME280;65284;51.040;13.722;2023-08-06T00:22:57;99066.03;;;15.62;100.00
76448;BME280;65284;51.040;13.722;2023-08-06T00:25:23;99060.59;;;15.76;100.00
76448;BME280;65284;51.040;13.722;2023-08-06T00:27:50;99065.47;;;15.85;100.00
76448;BME280;65284;51.040;13.722;2023-08-06T00:30:16;99071.66;;;15.79;100.00
76448;BME280;65284;51.040;13.722;2023-08-06T00:32:43;99068.41;;;15.77;100.00
76448;BME280;65284;51.040;13.722;2023-08-06T00:35:10;99071.28;;;15.76;100.00
76448;BME280;65284;51.040;13.722;2023-08-06T00:37:36;99067.53;;;15.83;100.00
76448;BME280;65284;51.040;13.722;2023-08-06T00:40:03;99070.84;;;15.85;100.00
76448;BME280;65284;51.040;13.722;2023-08-06T00:42:29;99066.66;;;15.89;100.00
76448;BME280;65284;51.040;13.722;2023-08-06T00:44:56;99061.47;;;15.69;100.00
76448;BME280;65284;51.040;13.722;2023-08-06T00:47:23;99056.09;;;15.69;100.00
76448;BME280;65284;51.040;13.722;2023-08-06T00:49:49;99052.19;;;15.65;100.00
76448;BME280;65284;51.040;13.722;2023-08-06T00:52:16;99052.78;;;15.74;100.00
76448;BME280;65284;51.040;13.722;2023-08-06T00:54:43;99049.50;;;15.72;100.00
76448;BME280;65284;51.040;13.722;2023-08-06T00:57:10;99042.94;;;15.68;100.00
76448;BME280;65284;51.040;13.722;2023-08-06T00:59:37;99037.16;;;15.64;100.00
76448;BME280;65284;51.040;13.722;2023-08-06T01:02:04;99036.34;;;15.64;100.00
76448;BME280;65284;51.040;13.722;2023-08-06T01:04:31;99039.84;;;15.64;100.00
76448;BME280;65284;51.040;13.722;2023-08-06T01:07:31;99030.63;;;15.60;100.00
76448;BME280;65284;51.040;13.722;2023-08-06T01:15:54;99017.28;;;15.54;100.00
76448;BME280;65284;51.040;13.722;2023-08-06T01:18:23;99018.91;;;15.55;100.00
76448;BME280;65284;51.040;13.722;2023-08-06T01:20:49;99018.72;;;15.56;100.00
76448;BME280;65284;51.040;13.722;2023-08-06T01:23:16;99012.50;;;15.62;100.00
76448;BME280;65284;51.040;13.722;2023-08-06T01:26:05;99017.31;;;15.79;100.00
76448;BME280;65284;51.040;13.722;2023-08-06T01:31:41;99002.69;;;16.00;100.00
76448;BME280;65284;51.040;13.722;2023-08-06T01:34:24;98998.91;;;15.89;100.00
76448;BME280;65284;51.040;13.722;2023-08-06T01:36:51;98997.84;;;15.90;100.00
76448;BME280;65284;51.040;13.722;2023-08-06T01:39:18;99001.63;;;15.82;100.00
76448;BME280;65284;51.040;13.722;2023-08-06T01:41:48;98998.56;;;15.79;100.00
76448;BME280;65284;51.040;13.722;2023-08-06T01:44:15;98991.75;;;15.83;100.00
76448;BME280;65284;51.040;13.722;2023-08-06T01:46:41;98988.16;;;15.64;100.00
76448;BME280;65284;51.040;13.722;2023-08-06T01:49:08;98987.72;;;15.67;100.00
76448;BME280;65284;51.040;13.722;2023-08-06T01:51:34;98985.03;;;15.67;100.00
76448;BME280;65284;51.040;13.722;2023-08-06T01:54:01;98987.84;;;15.54;100.00
76448;BME280;65284;51.040;13.722;2023-08-06T01:56:27;98991.22;;;15.42;100.00
76448;BME280;65284;51.040;13.722;2023-08-06T01:58:54;98991.31;;;15.29;100.00
76448;BME280;65284;51.040;13.722;2023-08-06T02:01:21;98985.56;;;15.57;100.00
76448;BME280;65284;51.040;13.722;2023-08-06T02:03:47;98990.34;;;15.48;100.00
76448;BME280;65284;51.040;13.722;2023-08-06T02:06:14;98990.03;;;15.38;100.00
76448;BME280;65284;51.040;13.722;2023-08-06T02:08:40;98992.09;;;15.36;100.00
76448;BME280;65284;51.040;13.722;2023-08-06T02:11:07;98988.72;;;15.47;100.00
76448;BME280;65284;51.040;13.722;2023-08-06T02:13:33;98994.28;;;15.46;100.00
76448;BME280;65284;51.040;13.722;2023-08-06T02:16:00;98993.28;;;15.40;100.00
76448;BME280;65284;51.040;13.722;2023-08-06T02:18:26;98992.31;;;15.60;100.00
76448;BME280;65284;51.040;13.722;2023-08-06T02:20:59;98986.59;;;15.56;100.00
76448;BME280;65284;51.040;13.722;2023-08-06T02:23:26;98995.75;;;15.42;100.00
76448;BME280;65284;51.040;13.722;2023-08-06T02:26:03;98990.78;;;15.45;100.00
76448;BME280;65284;51.040;13.722;2023-08-06T02:28:30;98982.94;;;15.51;100.00
76448;BME280;65284;51.040;13.722;2023-08-06T02:30:57;98977.47;;;15.64;100.00
76448;BME280;65284;51.040;13.722;2023-08-06T02:33:24;98981.28;;;15.50;100.00
76448;BME280;65284;51.040;13.722;2023-08-06T02:35:50;98984.47;;;15.65;100.00
76448;BME280;65284;51.040;13.722;2023-08-06T02:38:17;98975.78;;;15.69;100.00
76448;BME280;65284;51.040;13.722;2023-08-06T02:40:44;98979.94;;;15.65;100.00
76448;BME280;65284;51.040;13.722;2023-08-06T02:43:12;98973.59;;;15.60;100.00
76448;BME280;65284;51.040;13.722;2023-08-06T02:45:39;98964.41;;;15.49;100.00
76448;BME280;65284;51.040;13.722;2023-08-06T02:48:05;98962.59;;;15.43;100.00
76448;BME280;65284;51.040;13.722;2023-08-06T02:50:40;98961.88;;;15.29;100.00
76448;BME280;65284;51.040;13.722;2023-08-06T02:53:07;98965.34;;;15.36;100.00
76448;BME280;65284;51.040;13.722;2023-08-06T02:55:34;98958.00;;;15.25;100.00
76448;BME280;65284;51.040;13.722;2023-08-06T02:58:01;98957.50;;;15.35;100.00
76448;BME280;65284;51.040;13.722;2023-08-06T03:00:28;98958.78;;;15.32;100.00
76448;BME280;65284;51.040;13.722;2023-08-06T03:02:54;98960.06;;;15.23;100.00
76448;BME280;65284;51.040;13.722;2023-08-06T03:05:21;98947.84;;;15.09;100.00
76448;BME280;65284;51.040;13.722;2023-08-06T03:07:48;98948.63;;;15.16;100.00
76448;BME280;65284;51.040;13.722;2023-08-06T03:10:14;98944.38;;;15.01;100.00
76448;BME280;65284;51.040;13.722;2023-08-06T03:12:41;98944.56;;;15.07;100.00
76448;BME280;65284;51.040;13.722;2023-08-06T03:15:07;98943.44;;;14.89;100.00
76448;BME280;65284;51.040;13.722;2023-08-06T03:17:34;98933.78;;;14.88;100.00
76448;BME280;65284;51.040;13.722;2023-08-06T03:20:00;98932.25;;;14.99;100.00
76448;BME280;65284;51.040;13.722;2023-08-06T03:22:27;98931.88;;;14.95;100.00
76448;BME280;65284;51.040;13.722;2023-08-06T03:24:53;98923.09;;;14.88;100.00
76448;BME280;65284;51.040;13.722;2023-08-06T03:27:20;98918.75;;;14.87;100.00
76448;BME280;65284;51.040;13.722;2023-08-06T03:29:49;98921.19;;;14.95;100.00
76448;BME280;65284;51.040;13.722;2023-08-06T03:32:16;98907.06;;;14.88;100.00
76448;BME280;65284;51.040;13.722;2023-08-06T03:34:43;98909.97;;;14.80;100.00
76448;BME280;65284;51.040;13.722;2023-08-06T03:37:09;98906.63;;;14.91;100.00
76448;BME280;65284;51.040;13.722;2023-08-06T03:39:35;98910.06;;;14.98;100.00
76448;BME280;65284;51.040;13.722;2023-08-06T03:42:02;98905.00;;;15.15;100.00
76448;BME280;65284;51.040;13.722;2023-08-06T03:44:28;98905.94;;;15.02;100.00
76448;BME280;65284;51.040;13.722;2023-08-06T03:46:55;98909.44;;;14.96;100.00
76448;BME280;65284;51.040;13.722;2023-08-06T03:49:21;98891.53;;;15.04;100.00
76448;BME280;65284;51.040;13.722;2023-08-06T03:51:48;98894.31;;;15.15;100.00
76448;BME280;65284;51.040;13.722;2023-08-06T03:54:14;98888.59;;;15.12;100.00
76448;BME280;65284;51.040;13.722;2023-08-06T03:56:41;98891.69;;;15.09;100.00
76448;BME280;65284;51.040;13.722;2023-08-06T03:59:07;98881.25;;;15.00;100.00
76448;BME280;65284;51.040;13.722;2023-08-06T04:01:34;98882.56;;;14.91;100.00
76448;BME280;65284;51.040;13.722;2023-08-06T04:04:00;98875.13;;;14.93;100.00
76448;BME280;65284;51.040;13.722;2023-08-06T04:06:27;98874.38;;;14.86;100.00
76448;BME280;65284;51.040;13.722;2023-08-06T04:08:53;98872.63;;;14.98;100.00
76448;BME280;65284;51.040;13.722;2023-08-06T04:11:19;98861.19;;;14.85;100.00
76448;BME280;65284;51.040;13.722;2023-08-06T04:13:46;98862.81;;;14.92;100.00
76448;BME280;65284;51.040;13.722;2023-08-06T04:16:12;98858.66;;;14.96;100.00
76448;BME280;65284;51.040;13.722;2023-08-06T04:18:41;98857.84;;;14.96;100.00
76448;BME280;65284;51.040;13.722;2023-08-06T04:21:07;98854.69;;;15.06;100.00
76448;BME280;65284;51.040;13.722;2023-08-06T04:23:34;98855.63;;;15.18;100.00
76448;BME280;65284;51.040;13.722;2023-08-06T04:26:00;98851.44;;;15.22;100.00
76448;BME280;65284;51.040;13.722;2023-08-06T04:28:27;98847.41;;;15.13;100.00
76448;BME280;65284;51.040;13.722;2023-08-06T04:30:54;98844.50;;;15.14;100.00
76448;BME280;65284;51.040;13.722;2023-08-06T04:33:20;98842.81;;;15.20;100.00
76448;BME280;65284;51.040;13.722;2023-08-06T04:35:47;98844.84;;;15.24;100.00
76448;BME280;65284;51.040;13.722;2023-08-06T04:38:13;98837.81;;;15.30;100.00
76448;BME280;65284;51.040;13.722;2023-08-06T04:40:40;98832.63;;;15.54;100.00
76448;BME280;65284;51.040;13.722;2023-08-06T04:43:07;98837.09;;;15.41;100.00
76448;BME280;65284;51.040;13.722;2023-08-06T04:45:33;98839.44;;;15.31;100.00
76448;BME280;65284;51.040;13.722;2023-08-06T04:47:59;98834.22;;;15.18;100.00
76448;BME280;65284;51.040;13.722;2023-08-06T04:50:26;98834.66;;;15.15;100.00
76448;BME280;65284;51.040;13.722;2023-08-06T04:52:53;98830.19;;;15.09;100.00
76448;BME280;65284;51.040;13.722;2023-08-06T04:55:19;98825.72;;;15.02;100.00
76448;BME280;65284;51.040;13.722;2023-08-06T04:57:45;98829.22;;;15.03;100.00
76448;BME280;65284;51.040;13.722;2023-08-06T05:00:12;98832.47;;;15.05;100.00
76448;BME280;65284;51.040;13.722;2023-08-06T05:02:38;98833.13;;;15.00;100.00
76448;BME280;65284;51.040;13.722;2023-08-06T05:05:05;98824.84;;;15.09;100.00
76448;BME280;65284;51.040;13.722;2023-08-06T05:07:32;98827.34;;;15.04;100.00
76448;BME280;65284;51.040;13.722;2023-08-06T05:09:58;98824.94;;;14.95;100.00
76448;BME280;65284;51.040;13.722;2023-08-06T05:12:24;98820.78;;;14.99;100.00
76448;BME280;65284;51.040;13.722;2023-08-06T05:14:51;98821.22;;;14.96;100.00
76448;BME280;65284;51.040;13.722;2023-08-06T05:17:17;98812.56;;;15.01;100.00
76448;BME280;65284;51.040;13.722;2023-08-06T05:19:44;98810.16;;;14.93;100.00
76448;BME280;65284;51.040;13.722;2023-08-06T05:22:10;98807.09;;;14.89;100.00
76448;BME280;65284;51.040;13.722;2023-08-06T05:24:37;98815.50;;;14.93;100.00
76448;BME280;65284;51.040;13.722;2023-08-06T05:27:03;98810.53;;;14.96;100.00
76448;BME280;65284;51.040;13.722;2023-08-06T05:29:30;98810.53;;;14.96;100.00
76448;BME280;65284;51.040;13.722;2023-08-06T05:31:56;98799.69;;;14.91;100.00
76448;BME280;65284;51.040;13.722;2023-08-06T05:34:23;98804.31;;;15.02;100.00
76448;BME280;65284;51.040;13.722;2023-08-06T05:36:49;98791.09;;;15.08;100.00
76448;BME280;65284;51.040;13.722;2023-08-06T05:39:16;98789.78;;;15.17;100.00
76448;BME280;65284;51.040;13.722;2023-08-06T05:41:42;98792.31;;;15.12;100.00
76448;BME280;65284;51.040;13.722;2023-08-06T05:44:09;98795.44;;;15.09;100.00
76448;BME280;65284;51.040;13.722;2023-08-06T05:46:35;98785.31;;;15.11;100.00
76448;BME280;65284;51.040;13.722;2023-08-06T05:49:02;98793.41;;;15.04;100.00
76448;BME280;65284;51.040;13.722;2023-08-06T05:51:29;98787.94;;;14.92;100.00
76448;BME280;65284;51.040;13.722;2023-08-06T05:53:55;98797.16;;;14.96;100.00
76448;BME280;65284;51.040;13.722;2023-08-06T05:56:21;98801.47;;;14.97;100.00
76448;BME280;65284;51.040;13.722;2023-08-06T05:58:48;98797.59;;;14.93;100.00
76448;BME280;65284;51.040;13.722;2023-08-06T06:01:16;98796.19;;;14.91;100.00
76448;BME280;65284;51.040;13.722;2023-08-06T06:03:43;98800.25;;;14.93;100.00
76448;BME280;65284;51.040;13.722;2023-08-06T06:06:09;98799.81;;;14.96;100.00
76448;BME280;65284;51.040;13.722;2023-08-06T06:08:36;98794.09;;;14.93;100.00
76448;BME280;65284;51.040;13.722;2023-08-06T06:11:02;98801.47;;;14.97;100.00
76448;BME280;65284;51.040;13.722;2023-08-06T06:13:29;98794.16;;;14.86;100.00
76448;BME280;65284;51.040;13.722;2023-08-06T06:15:55;98795.53;;;14.95;100.00
76448;BME280;65284;51.040;13.722;2023-08-06T06:18:22;98787.50;;;14.95;100.00
76448;BME280;65284;51.040;13.722;2023-08-06T06:20:49;98792.78;;;15.02;100.00
76448;BME280;65284;51.040;13.722;2023-08-06T06:23:15;98792.16;;;15.07;100.00
76448;BME280;65284;51.040;13.722;2023-08-06T06:25:43;98793.66;;;14.96;100.00
76448;BME280;65284;51.040;13.722;2023-08-06T06:28:09;98794.44;;;15.03;100.00
76448;BME280;65284;51.040;13.722;2023-08-06T06:30:36;98790.66;;;15.11;100.00
76448;BME280;65284;51.040;13.722;2023-08-06T06:33:02;98797.66;;;15.12;100.00
76448;BME280;65284;51.040;13.722;2023-08-06T06:35:29;98786.53;;;15.15;100.00
76448;BME280;65284;51.040;13.722;2023-08-06T06:37:56;98784.31;;;15.30;100.00
76448;BME280;65284;51.040;13.722;2023-08-06T06:40:22;98786.22;;;15.23;100.00
76448;BME280;65284;51.040;13.722;2023-08-06T06:42:48;98780.41;;;15.26;100.00
76448;BME280;65284;51.040;13.722;2023-08-06T06:45:15;98783.69;;;15.28;100.00
76448;BME280;65284;51.040;13.722;2023-08-06T06:47:42;98783.53;;;15.23;100.00
76448;BME280;65284;51.040;13.722;2023-08-06T06:50:08;98790.38;;;15.19;100.00
76448;BME280;65284;51.040;13.722;2023-08-06T06:52:35;98797.69;;;15.30;100.00
76448;BME280;65284;51.040;13.722;2023-08-06T06:55:01;98787.06;;;15.42;100.00
76448;BME280;65284;51.040;13.722;2023-08-06T06:57:28;98794.41;;;15.46;100.00
76448;BME280;65284;51.040;13.722;2023-08-06T06:59:54;98802.31;;;15.41;100.00
76448;BME280;65284;51.040;13.722;2023-08-06T07:02:20;98799.91;;;15.33;100.00
76448;BME280;65284;51.040;13.722;2023-08-06T07:04:47;98800.06;;;15.38;100.00
76448;BME280;65284;51.040;13.722;2023-08-06T07:07:13;98797.84;;;15.35;100.00
76448;BME280;65284;51.040;13.722;2023-08-06T07:09:40;98802.31;;;15.41;100.00
76448;BME280;65284;51.040;13.722;2023-08-06T07:12:07;98802.75;;;15.38;100.00
76448;BME280;65284;51.040;13.722;2023-08-06T07:14:33;98803.75;;;15.37;100.00
76448;BME280;65284;51.040;13.722;2023-08-06T07:17:00;98807.06;;;15.58;100.00
76448;BME280;65284;51.040;13.722;2023-08-06T07:19:26;98805.09;;;15.46;100.00
76448;BME280;65284;51.040;13.722;2023-08-06T07:21:53;98810.47;;;15.46;100.00
76448;BME280;65284;51.040;13.722;2023-08-06T07:24:20;98808.09;;;15.57;100.00
76448;BME280;65284;51.040;13.722;2023-08-06T07:26:46;98801.78;;;15.51;100.00
76448;BME280;65284;51.040;13.722;2023-08-06T07:29:13;98798.88;;;15.53;100.00
76448;BME280;65284;51.040;13.722;2023-08-06T07:31:40;98801.69;;;15.58;100.00
76448;BME280;65284;51.040;13.722;2023-08-06T07:34:06;98798.28;;;15.51;100.00
76448;BME280;65284;51.040;13.722;2023-08-06T07:36:32;98793.97;;;15.50;100.00
76448;BME280;65284;51.040;13.722;2023-08-06T07:38:59;98797.69;;;15.48;100.00
76448;BME280;65284;51.040;13.722;2023-08-06T07:41:25;98800.06;;;15.57;100.00
76448;BME280;65284;51.040;13.722;2023-08-06T07:43:52;98801.53;;;15.53;100.00
76448;BME280;65284;51.040;13.722;2023-08-06T07:46:18;98793.59;;;15.46;100.00
76448;BME280;65284;51.040;13.722;2023-08-06T07:48:45;98795.28;;;15.40;100.00
76448;BME280;65284;51.040;13.722;2023-08-06T07:51:11;98790.53;;;15.24;100.00
76448;BME280;65284;51.040;13.722;2023-08-06T07:53:38;98796.63;;;15.31;100.00
76448;BME280;65284;51.040;13.722;2023-08-06T07:56:04;98789.72;;;15.23;100.00
76448;BME280;65284;51.040;13.722;2023-08-06T07:58:31;98795.72;;;15.19;100.00
76448;BME280;65284;51.040;13.722;2023-08-06T08:00:58;98788.16;;;15.16;100.00
76448;BME280;65284;51.040;13.722;2023-08-06T08:03:24;98791.88;;;15.15;100.00
76448;BME280;65284;51.040;13.722;2023-08-06T08:05:54;98785.47;;;15.16;100.00
76448;BME280;65284;51.040;13.722;2023-08-06T08:08:23;98796.16;;;15.16;100.00
76448;BME280;65284;51.040;13.722;2023-08-06T08:10:49;98786.34;;;15.10;100.00
76448;BME280;65284;51.040;13.722;2023-08-06T08:13:15;98788.59;;;15.13;100.00
76448;BME280;65284;51.040;13.722;2023-08-06T08:15:42;98778.34;;;15.10;100.00
76448;BME280;65284;51.040;13.722;2023-08-06T08:18:08;98785.91;;;15.13;100.00
76448;BME280;65284;51.040;13.722;2023-08-06T08:20:35;98788.28;;;15.02;100.00
76448;BME280;65284;51.040;13.722;2023-08-06T08:23:02;98780.84;;;15.05;100.00
76448;BME280;65284;51.040;13.722;2023-08-06T08:25:28;98768.81;;;15.14;100.00
76448;BME280;65284;51.040;13.722;2023-08-06T08:27:57;98770.06;;;15.11;100.00
76448;BME280;65284;51.040;13.722;2023-08-06T08:30:23;98767.47;;;15.05;100.00
76448;BME280;65284;51.040;13.722;2023-08-06T08:32:51;98767.16;;;14.94;100.00
76448;BME280;65284;51.040;13.722;2023-08-06T08:35:18;98761.81;;;14.94;100.00
76448;BME280;65284;51.040;13.722;2023-08-06T08:37:45;98761.03;;;14.87;100.00
76448;BME280;65284;51.040;13.722;2023-08-06T08:40:11;98768.41;;;14.92;100.00
76448;BME280;65284;51.040;13.722;2023-08-06T08:42:38;98760.03;;;14.88;100.00
76448;BME280;65284;51.040;13.722;2023-08-06T08:45:06;98756.75;;;14.86;100.00
76448;BME280;65284;51.040;13.722;2023-08-06T08:47:38;98750.00;;;15.02;100.00
76448;BME280;65284;51.040;13.722;2023-08-06T08:50:06;98746.34;;;14.96;100.00
76448;BME280;65284;51.040;13.722;2023-08-06T08:52:33;98738.13;;;14.98;100.00
76448;BME280;65284;51.040;13.722;2023-08-06T08:55:01;98736.00;;;15.07;100.00
76448;BME280;65284;51.040;13.722;2023-08-06T08:57:28;98733.91;;;15.09;100.00
76448;BME280;65284;51.040;13.722;2023-08-06T08:59:54;98733.91;;;15.09;100.00
76448;BME280;65284;51.040;13.722;2023-08-06T09:02:21;98728.94;;;15.12;100.00
76448;BME280;65284;51.040;13.722;2023-08-06T09:04:48;98735.03;;;15.19;100.00
76448;BME280;65284;51.040;13.722;2023-08-06T09:07:18;98731.00;;;15.29;100.00
76448;BME280;65284;51.040;13.722;2023-08-06T09:09:48;98733.75;;;15.22;100.00
76448;BME280;65284;51.040;13.722;2023-08-06T09:12:16;98732.13;;;15.21;100.00
76448;BME280;65284;51.040;13.722;2023-08-06T09:14:43;98737.03;;;15.24;100.00
76448;BME280;65284;51.040;13.722;2023-08-06T09:17:09;98733.03;;;15.33;100.00
76448;BME280;65284;51.040;13.722;2023-08-06T09:19:42;98732.88;;;15.28;100.00
76448;BME280;65284;51.040;13.722;2023-08-06T09:22:14;98733.94;;;15.27;100.00
76448;BME280;65284;51.040;13.722;2023-08-06T09:24:41;98729.59;;;15.26;100.00
76448;BME280;65284;51.040;13.722;2023-08-06T09:27:14;98726.47;;;15.29;100.00
76448;BME280;65284;51.040;13.722;2023-08-06T09:29:42;98730.50;;;15.38;100.00
76448;BME280;65284;51.040;13.722;2023-08-06T09:32:12;98726.19;;;15.37;100.00
76448;BME280;65284;51.040;13.722;2023-08-06T09:34:43;98730.06;;;15.41;100.00
76448;BME280;65284;51.040;13.722;2023-08-06T09:37:12;98727.22;;;15.36;100.00
76448;BME280;65284;51.040;13.722;2023-08-06T09:39:39;98723.66;;;15.42;100.00
76448;BME280;65284;51.040;13.722;2023-08-06T09:42:07;98717.03;;;15.45;100.00
76448;BME280;65284;51.040;13.722;2023-08-06T09:44:34;98715.84;;;15.41;100.00
76448;BME280;65284;51.040;13.722;2023-08-06T09:47:03;98712.66;;;15.51;100.00
76448;BME280;65284;51.040;13.722;2023-08-06T09:51:59;98717.84;;;15.64;100.00
76448;BME280;65284;51.040;13.722;2023-08-06T09:54:27;98713.97;;;15.60;100.00
76448;BME280;65284;51.040;13.722;2023-08-06T09:56:55;98709.53;;;15.72;100.00
76448;BME280;65284;51.040;13.722;2023-08-06T09:59:23;98706.91;;;15.65;100.00
76448;BME280;65284;51.040;13.722;2023-08-06T10:01:53;98703.88;;;15.62;100.00
76448;BME280;65284;51.040;13.722;2023-08-06T10:04:20;98700.38;;;15.61;100.00
76448;BME280;65284;51.040;13.722;2023-08-06T10:06:52;98699.09;;;15.64;100.00
76448;BME280;65284;51.040;13.722;2023-08-06T10:09:19;98701.03;;;15.75;100.00
76448;BME280;65284;51.040;13.722;2023-08-06T10:11:50;98699.28;;;15.69;100.00
76448;BME280;65284;51.040;13.722;2023-08-06T10:14:30;98697.31;;;15.76;100.00
76448;BME280;65284;51.040;13.722;2023-08-06T10:16:59;98693.47;;;15.72;100.00
76448;BME280;65284;51.040;13.722;2023-08-06T10:19:26;98685.44;;;15.72;100.00
76448;BME280;65284;51.040;13.722;2023-08-06T10:22:13;98687.06;;;15.73;100.00
76448;BME280;65284;51.040;13.722;2023-08-06T10:27:30;98681.94;;;16.02;100.00
76448;BME280;65284;51.040;13.722;2023-08-06T10:32:51;98673.13;;;16.13;100.00
76448;BME280;65284;51.040;13.722;2023-08-06T10:35:34;98668.69;;;16.19;100.00
76448;BME280;65284;51.040;13.722;2023-08-06T10:38:07;98661.59;;;16.24;100.00
76448;BME280;65284;51.040;13.722;2023-08-06T10:40:33;98663.34;;;16.19;100.00
76448;BME280;65284;51.040;13.722;2023-08-06T10:43:01;98668.59;;;16.25;98.98
76448;BME280;65284;51.040;13.722;2023-08-06T10:45:27;98657.28;;;16.35;98.53
76448;BME280;65284;51.040;13.722;2023-08-06T10:47:57;98642.75;;;16.43;98.18
76448;BME280;65284;51.040;13.722;2023-08-06T10:50:24;98653.69;;;16.29;96.92
76448;BME280;65284;51.040;13.722;2023-08-06T10:52:52;98647.38;;;16.35;97.41
76448;BME280;65284;51.040;13.722;2023-08-06T10:55:26;98650.78;;;16.31;97.72
76448;BME280;65284;51.040;13.722;2023-08-06T10:57:53;98651.13;;;16.34;97.91
76448;BME280;65284;51.040;13.722;2023-08-06T11:00:21;98639.59;;;16.46;96.72
76448;BME280;65284;51.040;13.722;2023-08-06T11:02:50;98625.28;;;16.52;96.95
76448;BME280;65284;51.040;13.722;2023-08-06T11:05:17;98631.78;;;16.56;95.27
76448;BME280;65284;51.040;13.722;2023-08-06T11:07:44;98640.09;;;16.78;96.86
76448;BME280;65284;51.040;13.722;2023-08-06T11:10:12;98633.19;;;16.70;95.70
76448;BME280;65284;51.040;13.722;2023-08-06T11:12:39;98633.44;;;16.80;92.84
76448;BME280;65284;51.040;13.722;2023-08-06T11:15:06;98628.56;;;16.77;92.45
76448;BME280;65284;51.040;13.722;2023-08-06T11:17:34;98635.16;;;16.75;93.45
76448;BME280;65284;51.040;13.722;2023-08-06T11:20:02;98620.25;;;16.67;93.72
76448;BME280;65284;51.040;13.722;2023-08-06T11:22:29;98627.59;;;16.60;94.46
76448;BME280;65284;51.040;13.722;2023-08-06T11:24:56;98615.94;;;16.66;93.48
76448;BME280;65284;51.040;13.722;2023-08-06T11:27:26;98616.97;;;16.65;94.02
76448;BME280;65284;51.040;13.722;2023-08-06T11:29:54;98613.03;;;16.79;92.83
76448;BME280;65284;51.040;13.722;2023-08-06T11:32:20;98615.38;;;16.76;89.75
76448;BME280;65284;51.040;13.722;2023-08-06T11:34:47;98618.16;;;16.69;88.79
76448;BME280;65284;51.040;13.722;2023-08-06T11:37:13;98606.63;;;16.80;89.93
76448;BME280;65284;51.040;13.722;2023-08-06T11:39:46;98610.09;;;16.93;89.83
76448;BME280;65284;51.040;13.722;2023-08-06T11:42:14;98613.63;;;16.81;87.89
76448;BME280;65284;51.040;13.722;2023-08-06T11:44:43;98617.38;;;16.80;88.26
76448;BME280;65284;51.040;13.722;2023-08-06T11:47:17;98615.72;;;16.79;90.58
76448;BME280;65284;51.040;13.722;2023-08-06T11:49:48;98609.16;;;16.75;91.01
76448;BME280;65284;51.040;13.722;2023-08-06T11:52:22;98611.41;;;16.78;91.55
76448;BME280;65284;51.040;13.722;2023-08-06T11:55:07;98612.69;;;16.88;91.12
76448;BME280;65284;51.040;13.722;2023-08-06T11:57:34;98614.66;;;16.92;91.47
76448;BME280;65284;51.040;13.722;2023-08-06T12:02:32;98614.28;;;16.89;90.36
76448;BME280;65284;51.040;13.722;2023-08-06T12:05:28;98621.75;;;16.98;90.07
76448;BME280;65284;51.040;13.722;2023-08-06T12:07:57;98620.22;;;17.02;90.17
76448;BME280;65284;51.040;13.722;2023-08-06T12:10:24;98614.03;;;17.02;90.92
76448;BME280;65284;51.040;13.722;2023-08-06T12:12:51;98609.94;;;17.11;89.85
76448;BME280;65284;51.040;13.722;2023-08-06T12:15:18;98609.00;;;17.05;90.32
76448;BME280;65284;51.040;13.722;2023-08-06T12:17:45;98614.72;;;17.09;91.13
76448;BME280;65284;51.040;13.722;2023-08-06T12:20:11;98610.31;;;17.03;90.75
76448;BME280;65284;51.040;13.722;2023-08-06T12:22:38;98608.22;;;17.05;89.42
76448;BME280;65284;51.040;13.722;2023-08-06T12:25:08;98619.28;;;17.09;88.02
76448;BME280;65284;51.040;13.722;2023-08-06T12:27:35;98613.69;;;17.10;89.90
76448;BME280;65284;51.040;13.722;2023-08-06T12:30:03;98616.56;;;17.20;88.17
76448;BME280;65284;51.040;13.722;2023-08-06T12:32:31;98617.00;;;17.29;86.84
76448;BME280;65284;51.040;13.722;2023-08-06T12:34:58;98612.81;;;17.21;88.23
76448;BME280;65284;51.040;13.722;2023-08-06T12:37:25;98601.28;;;17.21;88.53
76448;BME280;65284;51.040;13.722;2023-08-06T12:39:53;98595.06;;;17.32;89.09
76448;BME280;65284;51.040;13.722;2023-08-06T12:42:23;98595.34;;;17.19;89.01
76448;BME280;65284;51.040;13.722;2023-08-06T12:44:51;98597.94;;;17.02;90.15
76448;BME280;65284;51.040;13.722;2023-08-06T12:47:18;98585.78;;;17.11;92.10
76448;BME280;65284;51.040;13.722;2023-08-06T12:49:45;98589.78;;;17.37;88.49
76448;BME280;65284;51.040;13.722;2023-08-06T12:52:12;98583.13;;;17.40;89.63
76448;BME280;65284;51.040;13.722;2023-08-06T12:54:41;98582.97;;;17.46;90.13
76448;BME280;65284;51.040;13.722;2023-08-06T12:57:08;98587.53;;;17.46;89.20
76448;BME280;65284;51.040;13.722;2023-08-06T12:59:35;98578.91;;;17.44;88.25
76448;BME280;65284;51.040;13.722;2023-08-06T13:02:03;98576.78;;;17.46;89.07
76448;BME280;65284;51.040;13.722;2023-08-06T13:04:30;98583.78;;;17.47;89.38